Time;durP1;ratioP1;P1;durP2;ratioP2;P2;SDS_P1;SDS_P2;PMS_P1;PMS_P2;Temp;Humidity;BMP_temperature;BMP_pressure;BME280_temperature;BME280_humidity;BME280_pressure;Samples;Min_cycle;Max_cycle;Signal;HPM_P1;HPM_P2
2021/04/20 00:01:36;;;;;;;58.20;39.97;;;6.40;99.90;;;;;;6245983;23;20622;-79
2021/04/20 00:04:04;;;;;;;57.25;39.97;;;6.40;99.90;;;;;;6219240;23;20465;-78
2021/04/20 00:06:31;;;;;;;56.28;37.60;;;6.40;99.90;;;;;;6245604;22;20528;-77
2021/04/20 00:08:57;;;;;;;62.63;39.00;;;6.30;99.90;;;;;;6246015;23;20490;-78
2021/04/20 00:11:23;;;;;;;55.23;36.50;;;6.30;99.90;;;;;;6246057;23;20156;-78
2021/04/20 00:13:48;;;;;;;56.83;38.47;;;6.20;99.90;;;;;;6245980;23;20662;-78
2021/04/20 00:16:14;;;;;;;59.03;38.00;;;6.10;99.90;;;;;;6245486;22;20165;-79
2021/04/20 00:18:40;;;;;;;58.07;37.57;;;6.10;99.90;;;;;;6246039;23;20149;-78
2021/04/20 00:21:05;;;;;;;57.73;38.90;;;6.00;99.90;;;;;;6245993;23;20714;-79
2021/04/20 00:23:31;;;;;;;55.93;37.50;;;6.00;99.90;;;;;;6245916;23;20145;-78
2021/04/20 00:25:56;;;;;;;50.43;34.87;;;5.90;99.90;;;;;;6218556;23;20173;-79
2021/04/20 00:28:27;;;;;;;49.30;34.10;;;5.80;99.90;;;;;;6218992;23;20149;-79
2021/04/20 00:30:54;;;;;;;56.83;36.95;;;5.80;99.90;;;;;;6245995;23;20454;-79
2021/04/20 00:33:20;;;;;;;57.97;37.80;;;5.80;99.90;;;;;;6194200;23;20167;-78
2021/04/20 00:35:46;;;;;;;62.13;39.08;;;5.70;99.90;;;;;;6245418;22;20223;-78
2021/04/20 00:38:12;;;;;;;62.53;41.77;;;5.70;99.90;;;;;;6246004;23;20148;-79
2021/04/20 00:40:38;;;;;;;69.43;41.23;;;5.70;99.90;;;;;;6218706;23;20427;-78
2021/04/20 00:43:04;;;;;;;65.28;41.65;;;5.70;99.90;;;;;;6194567;23;20413;-78
2021/04/20 00:45:32;;;;;;;70.25;41.97;;;5.60;99.90;;;;;;6245245;22;20151;-78
2021/04/20 00:47:59;;;;;;;62.20;38.58;;;5.50;99.90;;;;;;6218866;23;20160;-78
2021/04/20 00:50:31;;;;;;;73.35;43.80;;;5.50;99.90;;;;;;6245618;23;20149;-77
2021/04/20 00:52:56;;;;;;;65.80;41.92;;;5.50;99.90;;;;;;6245894;23;20183;-79
2021/04/20 00:55:22;;;;;;;68.90;41.70;;;5.40;99.90;;;;;;6245360;22;20148;-79
2021/04/20 00:57:48;;;;;;;57.07;37.97;;;5.40;99.90;;;;;;6245950;23;20215;-77
2021/04/20 01:00:17;;;;;;;57.87;38.50;;;5.40;99.90;;;;;;6245481;23;20415;-79
2021/04/20 01:02:43;;;;;;;66.65;39.75;;;5.30;99.90;;;;;;6245588;23;20375;-78
2021/04/20 01:05:12;;;;;;;57.33;37.77;;;5.30;99.90;;;;;;6245341;23;20182;-78
2021/04/20 01:07:39;;;;;;;63.47;39.63;;;5.30;99.90;;;;;;6245819;23;20375;-78
2021/04/20 01:10:07;;;;;;;70.35;41.38;;;5.30;99.90;;;;;;6219060;23;20180;-78
2021/04/20 01:12:35;;;;;;;65.03;39.97;;;5.20;99.90;;;;;;6245673;23;20164;-78
2021/04/20 01:15:02;;;;;;;62.20;40.60;;;5.20;99.90;;;;;;6245272;23;20171;-77
2021/04/20 01:17:28;;;;;;;66.05;39.53;;;5.20;99.90;;;;;;6245605;22;20168;-78
2021/04/20 01:20:01;;;;;;;65.50;41.70;;;5.20;99.90;;;;;;6245962;23;20475;-78
2021/04/20 01:22:34;;;;;;;60.35;37.55;;;5.10;99.90;;;;;;6245423;23;20708;-78
2021/04/20 01:25:01;;;;;;;60.00;39.50;;;5.10;99.90;;;;;;6245491;23;20186;-78
2021/04/20 01:27:26;;;;;;;62.50;38.17;;;5.10;99.90;;;;;;6245606;22;20175;-78
2021/04/20 01:29:55;;;;;;;63.83;36.70;;;5.10;99.90;;;;;;6193734;23;20477;-78
2021/04/20 01:32:24;;;;;;;58.42;38.13;;;5.10;99.90;;;;;;6218907;23;20393;-78
2021/04/20 01:34:51;;;;;;;61.92;38.00;;;5.00;99.90;;;;;;6193715;23;20165;-77
2021/04/20 01:37:17;;;;;;;62.15;37.63;;;5.00;99.90;;;;;;6218638;23;20259;-77
2021/04/20 01:39:45;;;;;;;58.25;37.53;;;5.00;99.90;;;;;;6245526;23;20569;-77
2021/04/20 01:42:11;;;;;;;53.70;33.97;;;5.00;99.90;;;;;;6246931;23;20609;-77
2021/04/20 01:44:38;;;;;;;54.05;34.80;;;4.90;99.90;;;;;;6246855;23;20181;-78
2021/04/20 01:47:04;;;;;;;53.33;33.63;;;4.90;99.90;;;;;;6247216;22;20172;-77
2021/04/20 01:49:30;;;;;;;56.50;35.40;;;4.80;99.90;;;;;;6247300;23;20161;-77
2021/04/20 01:51:55;;;;;;;60.85;38.28;;;4.80;99.90;;;;;;6247346;23;20519;-77
2021/04/20 01:54:21;;;;;;;60.60;36.03;;;4.70;99.90;;;;;;6247296;23;20319;-77
2021/04/20 01:56:48;;;;;;;60.20;35.47;;;4.70;99.90;;;;;;6246523;22;20221;-78
2021/04/20 01:59:15;;;;;;;58.08;36.70;;;4.70;99.90;;;;;;6220025;23;20378;-78
2021/04/20 02:01:43;;;;;;;60.60;36.60;;;4.70;99.90;;;;;;6247140;23;20169;-78
2021/04/20 02:04:09;;;;;;;64.68;37.67;;;4.70;99.90;;;;;;6247161;23;20208;-78
2021/04/20 02:06:35;;;;;;;60.10;37.55;;;4.60;99.90;;;;;;6220093;23;20638;-78
2021/04/20 02:09:02;;;;;;;62.53;37.10;;;4.60;99.90;;;;;;6247140;23;20146;-78
2021/04/20 02:11:28;;;;;;;66.75;39.30;;;4.60;99.90;;;;;;6247168;23;20181;-78
2021/04/20 02:13:56;;;;;;;66.82;37.15;;;4.60;99.90;;;;;;6220175;23;20283;-77
2021/04/20 02:16:22;;;;;;;55.13;35.08;;;4.60;99.90;;;;;;6246731;22;20173;-78
2021/04/20 02:18:54;;;;;;;59.37;36.50;;;4.50;99.90;;;;;;6247112;23;20181;-78
2021/04/20 02:21:20;;;;;;;65.30;37.72;;;4.50;99.90;;;;;;6247441;23;20399;-78
2021/04/20 02:23:47;;;;;;;60.60;35.50;;;4.50;99.90;;;;;;6220484;23;20157;-78
2021/04/20 02:26:17;;;;;;;61.75;37.90;;;4.40;99.90;;;;;;6246641;22;20164;-78
2021/04/20 02:28:43;;;;;;;57.88;35.65;;;4.40;99.90;;;;;;6247077;23;20210;-78
2021/04/20 02:31:09;;;;;;;60.37;36.70;;;4.40;99.90;;;;;;6247136;23;20250;-78
2021/04/20 02:33:36;;;;;;;66.93;37.95;;;4.30;99.90;;;;;;6220738;23;20469;-78
2021/04/20 02:36:03;;;;;;;65.22;37.55;;;4.30;99.90;;;;;;6246525;22;20172;-78
2021/04/20 02:38:29;;;;;;;65.78;39.33;;;4.20;99.90;;;;;;6220490;23;20157;-77
2021/04/20 02:41:02;;;;;;;63.27;37.13;;;4.20;99.90;;;;;;6246625;23;20181;-80
2021/04/20 02:43:28;;;;;;;70.20;38.15;;;4.20;99.90;;;;;;6246834;23;20395;-78
2021/04/20 02:49:11;;;;;;;;;;;;;;;;;;;;;
2021/04/20 03:01:41;;;;;;;;;;;;;;;;;;;;;
2021/04/20 03:05:21;;;;;;;;;;;;;;;;;;;;;
2021/04/20 03:08:35;;;;;;;64.60;38.58;;;3.90;99.90;;;;;;6142685;23;20178;-77
2021/04/20 03:11:14;;;;;;;60.03;35.95;;;3.90;99.90;;;;;;6215764;23;20215;-78
2021/04/20 03:13:41;;;;;;;65.60;37.40;;;3.90;99.90;;;;;;6216204;23;20133;-78
2021/04/20 03:16:09;;;;;;;60.75;37.03;;;3.90;99.90;;;;;;6216030;23;20226;-78
2021/04/20 03:18:35;;;;;;;57.22;36.08;;;3.90;99.90;;;;;;6215986;23;20177;-77
2021/04/20 03:21:07;;;;;;;61.37;37.17;;;3.90;99.90;;;;;;6214517;23;20544;-77
2021/04/20 03:23:47;;;;;;;65.57;39.55;;;3.90;99.90;;;;;;6215969;23;20377;-77
2021/04/20 03:26:24;;;;;;;66.22;39.72;;;3.90;99.90;;;;;;6215724;23;20264;-77
2021/04/20 03:28:58;;;;;;;66.07;37.45;;;3.90;99.90;;;;;;6215984;23;20281;-77
2021/04/20 03:31:25;;;;;;;65.00;36.30;;;3.90;99.90;;;;;;6215969;23;20218;-77
2021/04/20 03:34:13;;;;;;;67.55;39.55;;;3.80;99.90;;;;;;6216304;23;20157;-77
2021/04/20 03:36:45;;;;;;;59.60;36.25;;;3.80;99.90;;;;;;6214198;23;20178;-78
2021/04/20 03:39:15;;;;;;;66.10;38.05;;;3.80;99.90;;;;;;6216239;23;20138;-77
2021/04/20 03:41:46;;;;;;;73.30;39.95;;;3.80;99.90;;;;;;6189427;23;20550;-77
2021/04/20 03:44:21;;;;;;;65.00;39.80;;;3.80;99.90;;;;;;6216276;23;20165;-77
2021/04/20 03:46:49;;;;;;;64.45;37.20;;;3.80;99.90;;;;;;6215650;23;20161;-77
2021/04/20 03:49:25;;;;;;;64.28;39.92;;;3.80;99.90;;;;;;6215819;23;20200;-78
2021/04/20 03:51:56;;;;;;;60.47;40.25;;;3.80;99.90;;;;;;6215710;23;20195;-77
2021/04/20 03:54:25;;;;;;;62.90;38.25;;;3.70;99.90;;;;;;6214258;23;20156;-77
2021/04/20 03:56:54;;;;;;;72.05;40.20;;;3.70;99.90;;;;;;6188851;23;20173;-77
2021/04/20 03:59:22;;;;;;;63.67;38.75;;;3.60;99.90;;;;;;6189036;23;20215;-77
2021/04/20 04:01:50;;;;;;;71.50;39.13;;;3.70;99.90;;;;;;6215543;23;20208;-77
2021/04/20 04:04:18;;;;;;;68.05;40.17;;;3.70;99.90;;;;;;6188800;23;20157;-77
2021/04/20 04:06:45;;;;;;;68.53;39.20;;;3.70;99.90;;;;;;6215459;23;20520;-77
2021/04/20 04:09:12;;;;;;;76.07;41.45;;;3.70;99.90;;;;;;6216016;23;20215;-77
2021/04/20 04:11:45;;;;;;;71.03;40.67;;;3.60;99.90;;;;;;6215578;23;20153;-77
2021/04/20 04:14:12;;;;;;;69.15;39.40;;;3.60;99.90;;;;;;6215616;23;20556;-77
2021/04/20 04:16:42;;;;;;;65.63;39.67;;;3.60;99.90;;;;;;6215312;23;20169;-77
2021/04/20 04:19:09;;;;;;;66.80;40.00;;;3.50;99.90;;;;;;6215782;23;20518;-77
2021/04/20 04:21:48;;;;;;;70.90;39.22;;;3.40;99.90;;;;;;6215409;23;20261;-77
2021/04/20 04:24:18;;;;;;;71.78;39.95;;;3.40;99.90;;;;;;6215335;23;20129;-77
2021/04/20 04:26:49;;;;;;;70.53;41.30;;;3.40;99.90;;;;;;6215642;23;20166;-76
2021/04/20 04:29:17;;;;;;;68.03;38.63;;;3.40;99.90;;;;;;6215577;23;20153;-77
2021/04/20 04:31:44;;;;;;;73.25;42.47;;;3.50;99.90;;;;;;6215539;23;20479;-77
2021/04/20 04:34:13;;;;;;;87.03;41.85;;;3.50;99.90;;;;;;6215444;23;20146;-77
2021/04/20 04:36:41;;;;;;;76.03;43.75;;;3.50;99.90;;;;;;6215107;23;20169;-77
2021/04/20 04:39:10;;;;;;;74.50;42.78;;;3.40;99.90;;;;;;6215338;23;20151;-76
2021/04/20 04:41:37;;;;;;;77.47;42.15;;;3.40;99.90;;;;;;6215267;23;20502;-76
2021/04/20 04:44:02;;;;;;;77.90;41.85;;;3.50;99.90;;;;;;6215174;23;20157;-77
2021/04/20 04:46:28;;;;;;;82.07;42.57;;;3.50;99.90;;;;;;6214905;23;20165;-76
2021/04/20 04:48:55;;;;;;;85.23;41.10;;;3.50;99.90;;;;;;6215757;23;20263;-76
2021/04/20 04:51:21;;;;;;;66.95;37.78;;;3.40;99.90;;;;;;6215408;23;20217;-78
2021/04/20 04:53:48;;;;;;;70.45;40.28;;;3.40;99.90;;;;;;6189176;23;20165;-79
2021/04/20 04:56:17;;;;;;;75.07;40.97;;;3.30;99.90;;;;;;6214890;23;20169;-78
2021/04/20 04:58:43;;;;;;;73.25;41.83;;;3.30;99.90;;;;;;6215500;23;20154;-79
2021/04/20 05:01:12;;;;;;;77.13;40.63;;;3.40;99.90;;;;;;6188312;23;20269;-78
2021/04/20 05:03:40;;;;;;;79.10;40.67;;;3.40;99.90;;;;;;6215299;23;20173;-79
2021/04/20 05:06:06;;;;;;;79.68;42.85;;;3.50;99.90;;;;;;6214744;23;20626;-78
2021/04/20 05:08:32;;;;;;;83.35;40.13;;;3.60;99.90;;;;;;6215151;23;20296;-78
2021/04/20 05:11:03;;;;;;;79.07;39.23;;;3.60;99.90;;;;;;6215275;23;20173;-78
2021/04/20 05:13:30;;;;;;;66.80;38.53;;;3.50;99.90;;;;;;6215279;23;20152;-79
2021/04/20 05:15:55;;;;;;;68.88;40.17;;;3.50;99.90;;;;;;6189402;23;20173;-78
2021/04/20 05:18:26;;;;;;;75.57;38.50;;;3.50;99.90;;;;;;6217406;23;20156;-78
2021/04/20 05:20:52;;;;;;;64.95;38.10;;;3.60;99.90;;;;;;6217167;23;20248;-78
2021/04/20 05:23:18;;;;;;;68.70;38.83;;;3.70;99.90;;;;;;6190717;23;20587;-79
2021/04/20 05:25:44;;;;;;;81.50;42.20;;;3.80;99.90;;;;;;6216887;23;20177;-78
2021/04/20 05:28:10;;;;;;;81.10;42.90;;;3.80;99.90;;;;;;6217197;23;20372;-79
2021/04/20 05:30:37;;;;;;;82.18;41.63;;;3.80;99.90;;;;;;6217086;23;20161;-78
2021/04/20 05:33:03;;;;;;;69.18;39.33;;;3.90;99.90;;;;;;6217140;23;20179;-78
2021/04/20 05:35:30;;;;;;;70.13;38.42;;;3.90;99.90;;;;;;6216717;23;20520;-78
2021/04/20 05:37:56;;;;;;;70.03;39.47;;;3.90;99.90;;;;;;6190377;23;20167;-78
2021/04/20 05:40:25;;;;;;;71.43;39.70;;;4.10;99.90;;;;;;6190086;23;20403;-78
2021/04/20 05:42:52;;;;;;;67.03;36.95;;;4.10;99.90;;;;;;6217071;23;20698;-78
2021/04/20 05:45:18;;;;;;;73.32;40.17;;;4.30;99.90;;;;;;6190008;23;20284;-79
2021/04/20 05:47:46;;;;;;;63.87;38.53;;;4.30;99.90;;;;;;6217376;23;20174;-78
2021/04/20 05:50:23;;;;;;;75.45;38.63;;;4.50;99.90;;;;;;6217065;23;20838;-78
2021/04/20 05:52:49;;;;;;;76.30;39.78;;;4.50;99.90;;;;;;6217082;23;20429;-78
2021/04/20 05:55:15;;;;;;;76.70;41.25;;;4.60;99.90;;;;;;6216436;23;20461;-79
2021/04/20 05:57:46;;;;;;;81.50;40.70;;;4.70;99.90;;;;;;6190062;23;20165;-78
2021/04/20 06:00:13;;;;;;;74.80;41.85;;;4.80;99.90;;;;;;6190137;23;20154;-78
2021/04/20 06:02:39;;;;;;;70.57;39.70;;;4.90;99.90;;;;;;6216667;23;20142;-79
2021/04/20 06:05:09;;;;;;;67.35;38.53;;;5.00;99.90;;;;;;6216386;23;20145;-78
2021/04/20 06:07:37;;;;;;;79.15;41.08;;;5.10;99.90;;;;;;6216533;23;20209;-78
2021/04/20 06:10:05;;;;;;;77.80;40.58;;;5.20;99.90;;;;;;6216620;23;20175;-79
2021/04/20 06:12:31;;;;;;;73.20;38.95;;;5.30;99.90;;;;;;6216560;23;20145;-78
2021/04/20 06:14:57;;;;;;;80.63;43.47;;;5.30;99.90;;;;;;6216369;23;20149;-78
2021/04/20 06:17:23;;;;;;;66.93;37.10;;;5.40;99.90;;;;;;6216819;23;20166;-78
2021/04/20 06:19:48;;;;;;;76.83;42.53;;;5.50;99.90;;;;;;6216887;23;20380;-78
2021/04/20 06:22:17;;;;;;;79.53;42.30;;;5.60;99.90;;;;;;6190059;23;20678;-78
2021/04/20 06:24:45;;;;;;;82.55;41.53;;;5.70;99.90;;;;;;6216163;23;20160;-79
2021/04/20 06:27:12;;;;;;;69.47;40.88;;;5.80;99.90;;;;;;6216300;23;20207;-82
2021/04/20 06:29:38;;;;;;;74.78;40.80;;;5.80;99.90;;;;;;6189972;23;20490;-80
2021/04/20 06:32:04;;;;;;;79.00;43.10;;;6.00;99.90;;;;;;6189800;23;20157;-80
2021/04/20 06:34:31;;;;;;;72.70;40.83;;;6.00;99.90;;;;;;6216419;23;20228;-82
2021/04/20 06:36:58;;;;;;;75.15;41.63;;;6.10;99.90;;;;;;6216399;23;20180;-80
2021/04/20 06:39:24;;;;;;;86.00;44.83;;;6.20;99.90;;;;;;6216723;23;20196;-81
2021/04/20 06:41:58;;;;;;;70.75;42.33;;;6.20;99.90;;;;;;6189769;23;20189;-79
2021/04/20 06:44:30;;;;;;;74.38;41.17;;;6.20;99.90;;;;;;6189792;23;20157;-79
2021/04/20 06:47:16;;;;;;;72.60;44.58;;;6.40;99.90;;;;;;6189659;23;20541;-79
2021/04/20 06:49:59;;;;;;;67.78;40.60;;;6.50;99.90;;;;;;6214931;23;20508;-79
2021/04/20 06:52:35;;;;;;;77.88;43.58;;;6.50;99.90;;;;;;6216379;23;20136;-79
2021/04/20 06:55:14;;;;;;;80.78;41.42;;;6.60;99.90;;;;;;6216027;23;20148;-79
2021/04/20 06:57:47;;;;;;;72.97;41.22;;;6.70;99.90;;;;;;6216348;23;20183;-79
2021/04/20 07:00:20;;;;;;;76.55;45.40;;;6.90;99.90;;;;;;6216288;23;20141;-79
2021/04/20 07:02:57;;;;;;;79.05;45.50;;;7.10;99.90;;;;;;6216302;23;20149;-79
2021/04/20 07:05:32;;;;;;;79.70;44.38;;;7.20;99.90;;;;;;6189378;23;20155;-79
2021/04/20 07:08:25;;;;;;;80.78;45.78;;;7.30;99.90;;;;;;6215935;23;20157;-78
2021/04/20 07:10:54;;;;;;;79.28;44.15;;;7.40;99.90;;;;;;6216257;23;20141;-80
2021/04/20 07:13:24;;;;;;;71.68;43.17;;;7.60;99.90;;;;;;6189513;23;20165;-79
2021/04/20 07:16:25;;;;;;;78.32;47.53;;;7.80;99.90;;;;;;6215703;23;20200;-81
2021/04/20 07:19:07;;;;;;;76.75;43.78;;;7.90;99.90;;;;;;6189658;23;20160;-80
2021/04/20 07:21:36;;;;;;;82.72;49.38;;;8.00;99.90;;;;;;6216485;23;20161;-79
2021/04/20 07:24:19;;;;;;;79.85;43.88;;;7.90;99.90;;;;;;6216258;23;20149;-80
2021/04/20 07:27:12;;;;;;;70.65;42.97;;;8.00;99.90;;;;;;6215853;23;20240;-80
2021/04/20 07:29:50;;;;;;;71.63;43.67;;;8.20;99.90;;;;;;6216022;23;20138;-77
2021/04/20 07:32:40;;;;;;;71.85;43.10;;;8.30;99.90;;;;;;6216032;23;20556;-78
2021/04/20 07:35:10;;;;;;;82.97;49.28;;;8.60;99.90;;;;;;6189029;23;20161;-77
2021/04/20 07:38:04;;;;;;;74.88;46.38;;;8.70;99.90;;;;;;6188668;23;20539;-77
2021/04/20 07:40:43;;;;;;;70.68;44.53;;;8.90;99.90;;;;;;6215966;23;20172;-78
2021/04/20 07:43:28;;;;;;;77.97;46.50;;;8.90;99.90;;;;;;6214875;23;20211;-77
2021/04/20 07:46:07;;;;;;;67.35;45.33;;;9.10;99.90;;;;;;6215598;23;20204;-80
2021/04/20 07:48:43;;;;;;;73.60;46.10;;;9.10;99.90;;;;;;6215818;23;20153;-80
2021/04/20 07:51:36;;;;;;;67.45;43.75;;;9.30;99.90;;;;;;6189202;23;20148;-79
2021/04/20 07:54:05;;;;;;;66.65;44.13;;;9.30;99.90;;;;;;6189618;23;20172;-79
2021/04/20 07:56:37;;;;;;;68.80;42.22;;;9.40;99.90;;;;;;6215527;23;20200;-79
2021/04/20 07:59:10;;;;;;;65.20;43.65;;;9.70;99.90;;;;;;6189217;23;20154;-78
2021/04/20 08:02:02;;;;;;;58.40;40.35;;;9.80;99.90;;;;;;6213969;23;20226;-79
2021/04/20 08:04:46;;;;;;;64.68;42.55;;;9.70;99.90;;;;;;6177242;23;20164;-79
2021/04/20 08:07:25;;;;;;;64.22;40.28;;;9.60;99.90;;;;;;6188921;23;20170;-81
2021/04/20 08:09:53;;;;;;;57.33;39.05;;;9.80;99.90;;;;;;6189191;23;20153;-78
2021/04/20 08:12:27;;;;;;;60.85;40.65;;;10.20;99.90;;;;;;6215697;23;20236;-79
2021/04/20 08:15:08;;;;;;;56.40;37.60;;;10.40;99.90;;;;;;6215554;23;20511;-79
2021/04/20 08:18:21;;;;;;;56.30;37.25;;;10.80;99.90;;;;;;6188905;23;20226;-78
2021/04/20 08:20:48;;;;;;;46.20;34.07;;;11.20;99.90;;;;;;6123834;23;20175;-78
2021/04/20 08:23:14;;;;;;;48.17;34.10;;;11.40;99.90;;;;;;6203914;23;20403;-78
2021/04/20 08:25:50;;;;;;;38.57;30.90;;;11.40;99.90;;;;;;6213631;23;20378;-80
2021/04/20 08:28:26;;;;;;;43.80;32.83;;;11.80;99.90;;;;;;6215604;23;20367;-78
2021/04/20 08:31:12;;;;;;;35.93;27.70;;;12.10;99.90;;;;;;6214104;23;20380;-78
2021/04/20 08:33:40;;;;;;;41.93;32.40;;;12.30;99.90;;;;;;6215932;23;20331;-78
2021/04/20 08:36:37;;;;;;;36.20;28.80;;;12.60;99.90;;;;;;6215119;23;20722;-78
2021/04/20 08:39:15;;;;;;;37.83;28.57;;;13.00;99.90;;;;;;6215683;23;20363;-78
2021/04/20 08:41:49;;;;;;;32.00;24.70;;;12.60;99.90;;;;;;6215518;23;20404;-80
2021/04/20 08:44:34;;;;;;;28.50;24.20;;;12.80;99.90;;;;;;6215838;23;20345;-80
2021/04/20 08:47:16;;;;;;;37.60;29.20;;;13.00;99.90;;;;;;6215453;23;20392;-80
2021/04/20 08:49:47;;;;;;;26.83;23.93;;;13.30;99.90;;;;;;6216060;23;20430;-80
2021/04/20 08:52:44;;;;;;;29.83;26.60;;;13.30;99.90;;;;;;6217538;23;20368;-78
2021/04/20 08:55:47;;;;;;;30.20;25.27;;;13.40;99.90;;;;;;6217428;23;20372;-77
2021/04/20 08:58:43;;;;;;;22.70;19.53;;;13.70;99.90;;;;;;6142181;23;20687;-78
2021/04/20 09:01:42;;;;;;;21.80;19.00;;;13.70;99.90;;;;;;6217500;23;20439;-78
2021/04/20 09:04:50;;;;;;;35.60;28.03;;;13.90;99.90;;;;;;6217364;23;20440;-78
2021/04/20 09:07:26;;;;;;;21.03;17.50;;;13.80;99.90;;;;;;6178608;23;20396;-79
2021/04/20 09:09:55;;;;;;;25.97;21.40;;;13.80;99.90;;;;;;6190948;23;20376;-77
2021/04/20 09:12:22;;;;;;;26.60;21.43;;;14.40;99.90;;;;;;6217381;23;20376;-77
2021/04/20 09:14:50;;;;;;;22.00;18.43;;;14.80;99.90;;;;;;6191115;23;20744;-77
2021/04/20 09:17:20;;;;;;;28.10;19.30;;;14.10;99.90;;;;;;6217372;23;20483;-79
2021/04/20 09:20:03;;;;;;;21.30;17.20;;;14.60;99.90;;;;;;6217334;23;20377;-78
2021/04/20 09:22:54;;;;;;;24.60;18.90;;;14.70;99.90;;;;;;6217159;23;20412;-77
2021/04/20 09:25:46;;;;;;;20.77;17.07;;;14.30;99.90;;;;;;6216949;23;20365;-79
2021/04/20 09:28:18;;;;;;;20.93;16.23;;;14.60;99.90;;;;;;6156512;23;20463;-78
2021/04/20 09:30:52;;;;;;;19.90;16.77;;;15.20;99.90;;;;;;6217242;23;20373;-82
2021/04/20 09:33:35;;;;;;;21.10;17.27;;;15.30;99.90;;;;;;6217222;23;20360;-76
2021/04/20 09:36:23;;;;;;;19.80;16.87;;;15.60;99.90;;;;;;6216831;22;20450;-77
2021/04/20 09:38:50;;;;;;;21.40;17.63;;;16.40;99.90;;;;;;6217430;23;20353;-77
2021/04/20 09:41:40;;;;;;;20.40;16.77;;;15.70;99.90;;;;;;6217138;23;20507;-79
2021/04/20 09:44:05;;;;;;;18.50;16.60;;;16.50;99.90;;;;;;6217111;23;20389;-77
2021/04/20 09:46:36;;;;;;;26.40;18.83;;;16.40;99.90;;;;;;6216625;23;20385;-76
2021/04/20 09:49:16;;;;;;;20.97;17.33;;;16.60;99.90;;;;;;6217658;23;20132;-76
2021/04/20 09:51:54;;;;;;;19.00;17.00;;;17.10;99.90;;;;;;6217166;23;20391;-78
2021/04/20 09:54:40;;;;;;;21.10;18.77;;;16.40;99.90;;;;;;6215442;23;20377;-77
2021/04/20 09:57:07;;;;;;;25.53;19.40;;;15.20;99.90;;;;;;6215351;23;20379;-79
2021/04/20 09:59:44;;;;;;;25.03;21.27;;;15.60;99.90;;;;;;6216952;23;20373;-75
2021/04/20 10:03:00;;;;;;;24.03;20.47;;;15.80;99.90;;;;;;6216468;23;20394;-79
2021/04/20 10:05:50;;;;;;;24.27;19.70;;;16.40;99.90;;;;;;6184966;23;20392;-78
2021/04/20 10:08:24;;;;;;;28.07;21.30;;;15.40;99.90;;;;;;6215335;23;20451;-77
2021/04/20 10:11:09;;;;;;;31.47;25.03;;;15.50;99.90;;;;;;6216959;23;20696;-77
2021/04/20 10:14:09;;;;;;;28.47;22.80;;;15.60;99.90;;;;;;6217086;23;20365;-77
2021/04/20 10:16:45;;;;;;;25.83;22.90;;;16.10;99.90;;;;;;6215810;22;20451;-77
2021/04/20 10:19:24;;;;;;;25.80;22.60;;;15.90;99.90;;;;;;6216954;23;20439;-77
2021/04/20 10:22:17;;;;;;;22.30;19.40;;;16.10;99.90;;;;;;6215174;23;20395;-81
2021/04/20 10:25:08;;;;;;;22.93;18.73;;;16.00;99.90;;;;;;6215003;23;20834;-80
2021/04/20 10:27:43;;;;;;;32.20;20.70;;;15.40;99.90;;;;;;6216964;23;20659;-79
2021/04/20 10:30:18;;;;;;;23.60;19.33;;;15.50;99.90;;;;;;6215291;23;20347;-79
2021/04/20 10:32:49;;;;;;;24.77;20.13;;;15.50;99.90;;;;;;6216719;23;20655;-78
2021/04/20 10:35:26;;;;;;;21.40;18.00;;;15.40;99.90;;;;;;6214731;23;20868;-78
2021/04/20 10:37:55;;;;;;;23.83;18.63;;;15.70;99.90;;;;;;6217265;23;20361;-78
2021/04/20 10:40:34;;;;;;;23.70;19.70;;;15.60;99.90;;;;;;6216989;23;20372;-78
2021/04/20 10:43:30;;;;;;;22.27;16.97;;;15.80;99.90;;;;;;6215033;23;20416;-78
2021/04/20 10:45:59;;;;;;;22.40;16.13;;;15.40;99.90;;;;;;6203757;23;20893;-78
2021/04/20 10:48:27;;;;;;;21.57;18.50;;;15.40;99.90;;;;;;6215210;23;20355;-78
2021/04/20 10:50:55;;;;;;;22.40;17.37;;;15.60;99.90;;;;;;6215454;23;20414;-78
2021/04/20 10:53:32;;;;;;;17.47;14.63;;;15.40;99.90;;;;;;6216503;23;20372;-78
2021/04/20 10:56:12;;;;;;;21.50;14.87;;;15.80;99.90;;;;;;6216261;23;20730;-78
2021/04/20 10:58:43;;;;;;;16.67;14.80;;;15.80;99.90;;;;;;6216570;23;20372;-78
2021/04/20 11:01:19;;;;;;;17.63;14.30;;;16.00;99.90;;;;;;6215971;23;20757;-77
2021/04/20 11:03:47;;;;;;;16.33;14.40;;;15.70;99.90;;;;;;6216369;23;20403;-78
2021/04/20 11:06:50;;;;;;;18.53;15.27;;;15.90;99.90;;;;;;6209744;23;20392;-78
2021/04/20 11:09:16;;;;;;;19.70;15.63;;;16.10;99.90;;;;;;6212848;23;20377;-77
2021/04/20 11:11:46;;;;;;;18.97;15.87;;;16.30;99.90;;;;;;6214508;23;20750;-77
2021/04/20 11:14:12;;;;;;;19.23;16.03;;;16.40;99.90;;;;;;6212838;23;20162;-76
2021/04/20 11:16:46;;;;;;;20.40;15.63;;;16.40;99.90;;;;;;6230036;23;20752;-76
2021/04/20 11:19:13;;;;;;;18.37;16.37;;;16.40;99.90;;;;;;6217584;23;20171;-76
2021/04/20 11:21:50;;;;;;;18.17;15.33;;;16.20;99.90;;;;;;6244264;23;20707;-78
2021/04/20 11:24:28;;;;;;;19.50;14.90;;;16.40;99.90;;;;;;6216264;23;20358;-76
2021/04/20 11:26:59;;;;;;;19.67;14.30;;;17.20;99.90;;;;;;6217553;23;20374;-77
2021/04/20 11:29:36;;;;;;;22.07;16.47;;;17.80;99.90;;;;;;6243287;23;20389;-78
2021/04/20 11:32:04;;;;;;;18.10;14.63;;;18.10;99.90;;;;;;6244215;23;20407;-77
2021/04/20 11:34:33;;;;;;;16.50;13.83;;;18.10;99.90;;;;;;6243988;23;20383;-77
2021/04/20 11:37:05;;;;;;;18.60;15.60;;;18.60;99.90;;;;;;6216911;23;20823;-78
2021/04/20 11:39:34;;;;;;;16.37;14.63;;;19.10;99.90;;;;;;6244902;23;20385;-77
2021/04/20 11:42:07;;;;;;;14.53;12.97;;;20.50;99.90;;;;;;6246365;23;20860;-78
2021/04/20 11:44:49;;;;;;;12.67;11.47;;;21.10;99.90;;;;;;6218869;23;20464;-77
2021/04/20 11:47:15;;;;;;;11.50;10.27;;;21.60;99.90;;;;;;6246003;22;20393;-78
2021/04/20 11:49:50;;;;;;;13.20;11.03;;;21.90;99.90;;;;;;6220012;23;20893;-76
2021/04/20 11:52:18;;;;;;;13.80;12.40;;;21.80;99.90;;;;;;6246175;23;20137;-77
2021/04/20 11:54:52;;;;;;;13.57;12.27;;;21.10;99.90;;;;;;6245755;23;20383;-77
2021/04/20 11:57:20;;;;;;;14.83;13.33;;;20.50;99.90;;;;;;6245889;22;20396;-77
2021/04/20 11:59:48;;;;;;;13.27;11.53;;;20.30;99.90;;;;;;6219745;23;20376;-77
2021/04/20 12:02:16;;;;;;;14.20;12.80;;;19.50;99.90;;;;;;6219102;23;20924;-76
2021/04/20 12:04:46;;;;;;;15.50;12.37;;;19.00;99.90;;;;;;6245653;23;20342;-77
2021/04/20 12:07:16;;;;;;;12.83;11.17;;;20.00;99.90;;;;;;6246012;22;20415;-77
2021/04/20 12:09:43;;;;;;;14.30;12.80;;;19.60;99.90;;;;;;6244967;23;20379;-76
2021/04/20 12:12:09;;;;;;;13.13;11.70;;;19.60;99.90;;;;;;6245936;23;20379;-77
2021/04/20 12:14:40;;;;;;;13.47;12.07;;;20.10;99.90;;;;;;6245628;23;20407;-76
2021/04/20 12:17:06;;;;;;;13.27;11.30;;;19.60;99.90;;;;;;6245788;22;20390;-76
2021/04/20 12:19:36;;;;;;;12.67;11.37;;;19.60;99.90;;;;;;6218904;23;20394;-78
2021/04/20 12:22:04;;;;;;;14.90;12.37;;;19.30;99.90;;;;;;6245785;23;20408;-78
2021/04/20 12:24:32;;;;;;;15.07;13.57;;;19.60;99.90;;;;;;6245281;23;20379;-84
2021/04/20 12:27:04;;;;;;;12.70;11.40;;;19.90;99.90;;;;;;6219008;23;20379;-77
2021/04/20 12:29:43;;;;;;;17.27;12.30;;;19.80;99.90;;;;;;6245728;23;20443;-78
2021/04/20 12:32:16;;;;;;;13.33;12.03;;;19.80;99.90;;;;;;6219234;23;20350;-78
2021/04/20 12:34:43;;;;;;;14.13;12.73;;;19.10;99.90;;;;;;6245568;23;20368;-78
2021/04/20 12:37:10;;;;;;;14.23;12.47;;;18.90;99.90;;;;;;6246097;22;20385;-77
2021/04/20 12:39:39;;;;;;;14.13;12.63;;;19.10;99.90;;;;;;6245740;23;20759;-76
2021/04/20 12:42:11;;;;;;;14.97;11.80;;;18.50;99.90;;;;;;6218853;23;20397;-76
2021/04/20 12:44:55;;;;;;;16.13;13.73;;;18.30;99.90;;;;;;6245244;23;20359;-76
2021/04/20 12:47:29;;;;;;;14.27;12.33;;;18.00;99.90;;;;;;6219928;23;20416;-76
2021/04/20 12:49:57;;;;;;;13.50;12.10;;;18.30;99.90;;;;;;6245824;23;20712;-76
2021/04/20 12:52:25;;;;;;;14.13;11.63;;;17.90;99.90;;;;;;6245458;23;20847;-75
2021/04/20 12:54:56;;;;;;;11.93;10.67;;;18.20;99.90;;;;;;6245426;23;20345;-76
2021/04/20 12:57:28;;;;;;;12.67;11.30;;;18.20;99.90;;;;;;6245719;22;20423;-76
2021/04/20 12:59:59;;;;;;;11.40;10.20;;;17.90;99.90;;;;;;6245834;23;20346;-76
2021/04/20 13:02:25;;;;;;;13.70;11.63;;;17.90;99.90;;;;;;6245831;23;20410;-76
2021/04/20 13:04:54;;;;;;;12.70;11.30;;;17.60;99.90;;;;;;6245208;23;20347;-76
2021/04/20 13:07:26;;;;;;;11.37;10.13;;;18.00;99.90;;;;;;6245392;22;20444;-76
2021/04/20 13:09:53;;;;;;;12.63;11.33;;;18.30;99.90;;;;;;6245585;23;20351;-76
2021/04/20 13:12:26;;;;;;;12.60;11.30;;;18.40;99.90;;;;;;6245691;23;20802;-76
2021/04/20 13:14:56;;;;;;;14.50;11.80;;;18.00;99.90;;;;;;6245250;23;20826;-76
2021/04/20 13:17:24;;;;;;;12.43;10.83;;;18.40;99.90;;;;;;6245564;22;20411;-76